Elmira, Missouri
Current Conditions -  °F | °C
As of 7:35 AM on Thursday 30 Oct 2014 (Local Time) from KGPH Reporting Station
NA  
Wind Chill: 44°   Ceiling: NA
Heat Index: 46°   Visibility: 10mi
Dew Point: 37°   Wind: 5mph
Humidity: 71%   Direction: 50°NE
Pressure: 30.02"   Gusts: NA
Location:  39.4492°N, 94.1793°W
Report Text: KGPH 301235Z AUTO 05004KT 10SM 08/03 A3002 RMK AO2
Loading
Personal Weather Stations






























Interactive Weather Map
Tropical Storm Tracking
New forecast layout! Learn more

10-Day Weather Forecast

Advertisements
Track Severe Weather on mobile